Time;durP1;ratioP1;P1;durP2;ratioP2;P2;SDS_P1;SDS_P2;PMS_P1;PMS_P2;Temp;Humidity;BMP_temperature;BMP_pressure;BME280_temperature;BME280_humidity;BME280_pressure;Samples;Min_cycle;Max_cycle;Signal;HPM_P1;HPM_P2
2023/03/31 00:00:32;;;;;;;40.20;5.47;;;11.70;99.90;;;;;;4936844;29;20183;-76
2023/03/31 00:02:58;;;;;;;40.45;5.40;;;11.70;99.90;;;;;;4936243;29;20218;-76
2023/03/31 00:05:25;;;;;;;36.22;6.03;;;11.70;99.90;;;;;;4951314;29;20211;-75
2023/03/31 00:07:59;;;;;;;36.70;5.43;;;11.70;99.90;;;;;;4936558;29;20218;-75
2023/03/31 00:10:33;;;;;;;37.75;5.60;;;11.70;99.90;;;;;;4936213;29;20198;-75
2023/03/31 00:13:00;;;;;;;31.60;4.85;;;11.70;99.90;;;;;;4935293;29;20175;-76
2023/03/31 00:15:27;;;;;;;32.60;4.82;;;11.60;99.90;;;;;;4936348;29;20591;-75
2023/03/31 00:17:53;;;;;;;34.10;5.53;;;11.70;99.90;;;;;;4950805;29;20278;-75
2023/03/31 00:20:19;;;;;;;38.75;5.25;;;11.70;99.90;;;;;;4950831;29;20231;-76
2023/03/31 00:22:45;;;;;;;36.83;5.03;;;11.70;99.90;;;;;;4936331;29;20185;-75
2023/03/31 00:25:13;;;;;;;44.72;5.72;;;11.70;99.90;;;;;;4935953;29;20183;-75
2023/03/31 00:27:43;;;;;;;41.28;5.60;;;11.70;99.90;;;;;;4935879;29;20218;-75
2023/03/31 00:30:10;;;;;;;38.08;5.65;;;11.70;99.90;;;;;;4936333;29;20179;-76
2023/03/31 00:32:35;;;;;;;35.42;5.20;;;11.70;99.90;;;;;;4936555;29;20171;-76
2023/03/31 00:35:01;;;;;;;38.65;5.85;;;11.70;99.90;;;;;;4950876;29;20243;-75
2023/03/31 00:37:28;;;;;;;35.80;4.97;;;11.70;99.90;;;;;;4936103;29;20206;-75
2023/03/31 00:39:54;;;;;;;41.08;5.53;;;11.70;99.90;;;;;;4936238;29;20187;-76
2023/03/31 00:42:20;;;;;;;37.25;5.28;;;11.70;99.90;;;;;;4936023;29;20192;-78
2023/03/31 00:45:08;;;;;;;31.27;5.68;;;11.70;99.90;;;;;;4934788;29;20188;-75
2023/03/31 00:47:34;;;;;;;32.90;5.20;;;11.60;99.90;;;;;;4950822;29;20218;-75
2023/03/31 00:50:00;;;;;;;34.20;4.88;;;11.60;99.90;;;;;;4919568;29;20250;-75
2023/03/31 00:52:36;;;;;;;26.95;4.93;;;11.70;99.90;;;;;;4934780;29;20593;-76
2023/03/31 00:55:11;;;;;;;34.13;4.95;;;11.70;99.90;;;;;;4936673;29;20183;-76
2023/03/31 00:57:40;;;;;;;38.50;5.28;;;11.60;99.90;;;;;;4950962;29;20186;-75
2023/03/31 01:00:14;;;;;;;48.10;6.05;;;11.60;99.90;;;;;;4935730;29;20267;-75
2023/03/31 01:02:51;;;;;;;35.92;5.30;;;11.60;99.90;;;;;;4950604;29;20194;-76
2023/03/31 01:05:30;;;;;;;37.10;5.45;;;11.60;99.90;;;;;;4935616;29;20193;-75
2023/03/31 01:07:58;;;;;;;30.98;4.85;;;11.50;99.90;;;;;;4936311;29;20768;-75
2023/03/31 01:10:24;;;;;;;35.92;5.90;;;11.50;99.90;;;;;;4934660;29;20183;-76
2023/03/31 01:12:53;;;;;;;35.88;5.35;;;11.50;99.90;;;;;;4935698;29;20304;-75
2023/03/31 01:15:18;;;;;;;34.38;5.72;;;11.50;99.90;;;;;;4936196;29;20179;-75
2023/03/31 01:17:46;;;;;;;28.27;5.22;;;11.50;99.90;;;;;;4935751;29;20202;-75
2023/03/31 01:20:39;;;;;;;34.85;5.20;;;11.50;99.90;;;;;;4935604;29;20234;-76
2023/03/31 01:23:17;;;;;;;32.13;4.88;;;11.50;99.90;;;;;;4936077;29;20253;-77
2023/03/31 01:26:14;;;;;;;31.25;5.03;;;11.50;99.90;;;;;;4951132;29;20571;-76
2023/03/31 01:28:56;;;;;;;31.45;5.28;;;11.50;99.90;;;;;;4950176;29;20211;-78
2023/03/31 01:32:11;;;;;;;35.53;5.40;;;11.40;99.90;;;;;;4935459;29;20612;-76
2023/03/31 01:35:10;;;;;;;34.10;5.03;;;11.50;99.90;;;;;;4935396;29;20176;-76
2023/03/31 01:37:55;;;;;;;33.20;5.18;;;11.40;99.90;;;;;;4934549;29;20180;-75
2023/03/31 01:40:27;;;;;;;34.10;4.68;;;11.40;99.90;;;;;;4936148;29;20232;-75
2023/03/31 01:43:02;;;;;;;25.42;4.35;;;11.40;99.90;;;;;;4951013;29;20179;-76
2023/03/31 01:45:49;;;;;;;31.90;4.53;;;11.40;99.90;;;;;;4936116;29;20179;-75
2023/03/31 01:48:20;;;;;;;33.95;4.57;;;11.40;99.90;;;;;;4935444;29;20203;-76
2023/03/31 01:50:56;;;;;;;32.30;5.00;;;11.30;99.90;;;;;;4934728;29;20648;-76
2023/03/31 01:53:44;;;;;;;34.28;4.68;;;11.30;99.90;;;;;;4950352;29;20209;-76
2023/03/31 01:56:21;;;;;;;26.42;4.80;;;11.30;99.90;;;;;;4937490;29;20164;-76
2023/03/31 01:59:35;;;;;;;36.88;4.85;;;11.30;99.90;;;;;;4937358;29;20190;-76
2023/03/31 02:02:23;;;;;;;26.05;5.05;;;11.20;99.90;;;;;;4917619;29;20187;-75
2023/03/31 02:04:58;;;;;;;29.33;4.63;;;11.20;99.90;;;;;;4938500;29;20202;-75
2023/03/31 02:07:54;;;;;;;39.33;5.75;;;11.20;99.90;;;;;;4954093;29;20514;-75
2023/03/31 02:10:23;;;;;;;29.85;4.57;;;11.20;99.90;;;;;;4936813;29;20671;-74
2023/03/31 02:12:50;;;;;;;30.15;5.40;;;11.20;99.90;;;;;;4953411;29;20600;-76
2023/03/31 02:15:26;;;;;;;26.23;4.35;;;11.20;99.90;;;;;;4938596;29;20250;-76
2023/03/31 02:17:57;;;;;;;31.25;4.28;;;11.20;99.90;;;;;;4938613;29;20179;-75
2023/03/31 02:20:26;;;;;;;29.52;4.22;;;11.20;99.90;;;;;;4938980;29;20748;-76
2023/03/31 02:22:54;;;;;;;25.10;4.22;;;11.10;99.90;;;;;;4938432;29;20238;-75
2023/03/31 02:25:27;;;;;;;25.08;4.40;;;11.10;99.90;;;;;;4938478;29;20183;-77
2023/03/31 02:27:59;;;;;;;28.17;4.88;;;11.10;99.90;;;;;;4937637;29;20530;-75
2023/03/31 02:30:36;;;;;;;29.25;4.40;;;11.10;99.90;;;;;;4938653;29;20247;-75
2023/03/31 02:33:04;;;;;;;26.30;4.22;;;11.10;99.90;;;;;;4937803;29;20608;-75
2023/03/31 02:35:32;;;;;;;25.02;4.82;;;11.10;99.90;;;;;;4936988;29;20270;-76
2023/03/31 02:37:58;;;;;;;27.10;4.20;;;11.10;99.90;;;;;;4938200;29;20195;-75
2023/03/31 02:40:26;;;;;;;22.98;4.28;;;11.10;99.90;;;;;;4921785;29;20559;-76
2023/03/31 02:42:52;;;;;;;28.33;4.57;;;11.00;99.90;;;;;;4937494;29;20683;-75
2023/03/31 02:45:45;;;;;;;29.23;4.13;;;11.00;99.90;;;;;;4952937;29;20183;-75
2023/03/31 02:48:17;;;;;;;25.77;4.53;;;11.00;99.90;;;;;;4952464;29;20207;-75
2023/03/31 02:51:07;;;;;;;36.05;4.40;;;11.00;99.90;;;;;;4937096;29;20536;-76
2023/03/31 02:53:58;;;;;;;28.20;4.80;;;11.00;99.90;;;;;;4937257;29;20209;-75
2023/03/31 02:56:47;;;;;;;28.55;4.57;;;11.00;99.90;;;;;;4936760;29;20180;-80
2023/03/31 02:59:27;;;;;;;26.80;4.03;;;11.00;99.90;;;;;;4938536;29;20191;-75
2023/03/31 03:02:05;;;;;;;36.00;4.55;;;11.00;99.90;;;;;;4952038;29;20288;-76
2023/03/31 03:05:09;;;;;;;21.48;3.55;;;11.00;99.90;;;;;;4952622;29;20171;-76
2023/03/31 03:07:45;;;;;;;24.45;3.75;;;11.00;99.90;;;;;;4935734;29;20294;-75
2023/03/31 03:10:16;;;;;;;26.80;4.35;;;11.10;99.90;;;;;;4936003;29;20176;-75
2023/03/31 03:12:54;;;;;;;36.00;4.13;;;11.10;99.90;;;;;;4952841;29;20180;-76
2023/03/31 03:15:55;;;;;;;20.40;4.00;;;11.10;99.90;;;;;;4952350;29;20175;-75
2023/03/31 03:18:21;;;;;;;25.67;3.88;;;11.00;99.90;;;;;;4936998;29;20632;-75
2023/03/31 03:20:48;;;;;;;30.35;3.88;;;11.00;99.90;;;;;;4937061;29;20227;-76
2023/03/31 03:23:17;;;;;;;19.63;3.60;;;11.10;99.90;;;;;;4937898;29;20183;-76
2023/03/31 03:25:43;;;;;;;27.48;4.18;;;11.00;99.90;;;;;;4937452;29;20179;-75
2023/03/31 03:28:09;;;;;;;21.15;4.25;;;11.00;99.90;;;;;;4937686;29;20203;-76
2023/03/31 03:30:35;;;;;;;27.60;4.25;;;11.00;99.90;;;;;;4937327;29;20195;-75
2023/03/31 03:33:02;;;;;;;26.63;4.18;;;11.00;99.90;;;;;;4951994;29;20525;-75
2023/03/31 03:35:28;;;;;;;28.20;4.10;;;11.00;99.90;;;;;;4951913;29;20191;-75
2023/03/31 03:37:54;;;;;;;23.08;4.07;;;11.00;99.90;;;;;;4936697;29;20636;-74
2023/03/31 03:40:19;;;;;;;26.80;3.92;;;10.90;99.90;;;;;;4951526;29;20194;-75
2023/03/31 03:42:45;;;;;;;20.42;3.80;;;10.90;99.90;;;;;;4936539;29;20247;-75
2023/03/31 03:45:11;;;;;;;23.05;4.22;;;10.90;99.90;;;;;;4937254;29;20195;-76
2023/03/31 03:47:36;;;;;;;24.83;4.45;;;10.90;99.90;;;;;;4936673;29;20227;-75
2023/03/31 03:50:03;;;;;;;28.95;4.15;;;10.90;99.90;;;;;;4919952;29;20191;-74
2023/03/31 03:52:29;;;;;;;19.67;4.00;;;10.90;99.90;;;;;;4936178;29;20606;-75
2023/03/31 03:54:55;;;;;;;16.92;4.18;;;10.90;99.90;;;;;;4936867;29;20191;-75
2023/03/31 03:57:21;;;;;;;21.17;4.00;;;10.90;99.90;;;;;;4937262;29;20530;-75
2023/03/31 03:59:46;;;;;;;22.13;4.45;;;10.90;99.90;;;;;;4936450;29;20269;-75
2023/03/31 04:02:12;;;;;;;17.90;3.67;;;10.90;99.90;;;;;;4936504;29;20175;-75
2023/03/31 04:04:38;;;;;;;26.85;4.25;;;10.90;99.90;;;;;;4936417;29;20187;-75
2023/03/31 04:07:04;;;;;;;16.50;3.42;;;10.90;99.90;;;;;;4936299;29;20586;-75
2023/03/31 04:09:30;;;;;;;20.35;4.05;;;10.90;99.90;;;;;;4936585;29;20184;-75
2023/03/31 04:11:56;;;;;;;22.02;4.15;;;10.90;99.90;;;;;;4936588;29;20190;-75
2023/03/31 04:14:22;;;;;;;19.83;4.28;;;10.90;99.90;;;;;;4936565;29;20544;-75
2023/03/31 04:16:48;;;;;;;16.77;4.55;;;11.00;99.90;;;;;;4951772;29;20191;-75
2023/03/31 04:19:18;;;;;;;21.30;4.25;;;10.90;99.90;;;;;;4935109;29;20570;-74
2023/03/31 04:21:44;;;;;;;16.67;4.25;;;11.00;99.90;;;;;;4936153;29;20295;-75
2023/03/31 04:24:20;;;;;;;24.52;5.05;;;11.00;99.90;;;;;;4936543;29;20179;-77
2023/03/31 04:26:49;;;;;;;16.70;4.75;;;11.00;99.90;;;;;;4950947;29;20250;-77
2023/03/31 04:29:15;;;;;;;17.25;4.82;;;11.00;99.90;;;;;;4935755;29;20187;-75
2023/03/31 04:31:42;;;;;;;12.35;4.60;;;11.10;99.90;;;;;;4950714;28;20204;-75
2023/03/31 04:34:12;;;;;;;13.88;4.60;;;11.10;99.90;;;;;;4935537;29;20171;-75
2023/03/31 04:36:41;;;;;;;18.80;5.45;;;11.10;99.90;;;;;;4935630;29;20191;-75
2023/03/31 04:39:11;;;;;;;18.38;5.70;;;11.10;99.90;;;;;;4935666;29;20171;-75
2023/03/31 04:41:37;;;;;;;15.85;5.57;;;11.10;99.90;;;;;;4935699;29;20761;-75
2023/03/31 04:44:03;;;;;;;14.30;5.75;;;11.10;99.90;;;;;;4935660;29;20197;-74
2023/03/31 04:46:28;;;;;;;17.02;6.13;;;11.10;99.90;;;;;;4935989;29;20628;-75
2023/03/31 04:48:54;;;;;;;19.85;6.40;;;11.10;99.90;;;;;;4935822;29;20628;-74
2023/03/31 04:51:20;;;;;;;16.65;6.60;;;11.10;99.90;;;;;;4935830;29;20262;-75
2023/03/31 04:53:46;;;;;;;12.07;6.05;;;11.10;99.90;;;;;;4950511;29;20196;-75
2023/03/31 04:56:12;;;;;;;19.38;7.07;;;11.10;99.90;;;;;;4935681;29;20180;-75
2023/03/31 04:58:38;;;;;;;16.77;7.20;;;11.10;99.90;;;;;;4936317;29;20187;-75
2023/03/31 05:01:07;;;;;;;20.85;7.25;;;11.10;99.90;;;;;;4936183;29;20188;-75
2023/03/31 05:03:33;;;;;;;27.67;7.43;;;11.10;99.90;;;;;;4935683;29;20178;-75
2023/03/31 05:05:59;;;;;;;16.17;6.85;;;11.00;99.90;;;;;;4935427;29;20266;-75
2023/03/31 05:08:26;;;;;;;16.73;7.13;;;11.00;99.90;;;;;;4935758;29;20241;-74
2023/03/31 05:10:52;;;;;;;16.63;7.53;;;11.10;99.90;;;;;;4935318;29;20180;-74
2023/03/31 05:13:18;;;;;;;23.67;7.90;;;11.10;99.90;;;;;;4934494;29;20183;-74
2023/03/31 05:15:44;;;;;;;20.88;7.63;;;11.10;99.90;;;;;;4935696;29;20191;-73
2023/03/31 05:18:10;;;;;;;19.38;8.10;;;11.10;99.90;;;;;;4935736;29;20195;-74
2023/03/31 05:20:36;;;;;;;18.02;7.75;;;11.10;99.90;;;;;;4934973;29;20223;-73
2023/03/31 05:23:01;;;;;;;20.85;8.02;;;11.10;99.90;;;;;;4935880;29;20556;-73
2023/03/31 05:25:31;;;;;;;15.43;7.85;;;11.10;99.90;;;;;;4934052;29;20278;-73
2023/03/31 05:27:58;;;;;;;21.85;8.18;;;11.10;99.90;;;;;;4935300;29;20222;-74
2023/03/31 05:30:25;;;;;;;18.35;7.95;;;11.10;99.90;;;;;;4938196;29;20187;-73
2023/03/31 05:32:52;;;;;;;21.92;8.35;;;11.10;99.90;;;;;;4939077;29;20179;-73
2023/03/31 05:35:18;;;;;;;19.70;8.60;;;11.10;99.90;;;;;;4938872;29;20176;-76
2023/03/31 05:37:44;;;;;;;21.77;8.13;;;11.10;99.90;;;;;;4954180;29;20191;-73
2023/03/31 05:40:10;;;;;;;18.75;8.65;;;11.10;99.90;;;;;;4938789;29;20654;-73
2023/03/31 05:42:37;;;;;;;21.15;7.63;;;11.10;99.90;;;;;;4939473;29;20190;-75
2023/03/31 05:45:03;;;;;;;17.45;7.75;;;11.10;99.90;;;;;;4938993;29;20214;-73
2023/03/31 05:47:29;;;;;;;16.08;6.88;;;11.10;99.90;;;;;;4938970;29;20211;-74
2023/03/31 05:49:55;;;;;;;21.00;7.65;;;11.10;99.90;;;;;;4953771;29;20194;-79
2023/03/31 05:52:21;;;;;;;15.85;6.90;;;11.10;99.90;;;;;;4939674;29;20204;-78
2023/03/31 05:54:46;;;;;;;17.40;6.63;;;11.10;99.90;;;;;;4937953;29;20222;-73
2023/03/31 05:57:12;;;;;;;15.07;6.50;;;11.10;99.90;;;;;;4939328;29;20187;-73
2023/03/31 05:59:39;;;;;;;18.63;6.55;;;11.10;99.90;;;;;;4939392;29;20179;-74
2023/03/31 06:02:05;;;;;;;17.73;6.22;;;11.10;99.90;;;;;;4939151;29;20183;-72
2023/03/31 06:04:31;;;;;;;16.23;5.93;;;11.10;99.90;;;;;;4922173;29;20350;-73
2023/03/31 06:06:58;;;;;;;14.13;5.95;;;11.10;99.90;;;;;;4938522;29;20277;-73
2023/03/31 06:09:24;;;;;;;16.05;6.80;;;11.10;99.90;;;;;;4953494;29;20183;-73
2023/03/31 06:11:50;;;;;;;16.00;5.70;;;11.10;99.90;;;;;;4938549;29;20179;-75
2023/03/31 06:14:16;;;;;;;16.27;5.90;;;11.00;99.90;;;;;;4938772;29;20183;-76
2023/03/31 06:16:42;;;;;;;15.25;5.47;;;11.00;99.90;;;;;;4953503;29;20179;-73
2023/03/31 06:19:08;;;;;;;16.60;5.18;;;11.00;99.90;;;;;;4938214;29;20306;-73
2023/03/31 06:21:34;;;;;;;16.83;5.55;;;11.00;99.90;;;;;;4937955;29;20597;-78
2023/03/31 06:24:00;;;;;;;13.35;5.25;;;11.00;99.90;;;;;;4938983;29;20586;-75
2023/03/31 06:26:26;;;;;;;16.55;5.28;;;11.00;99.90;;;;;;4938618;29;20278;-77
2023/03/31 06:28:53;;;;;;;11.10;5.25;;;11.10;99.90;;;;;;4938136;29;20211;-75
2023/03/31 06:31:21;;;;;;;20.10;5.63;;;11.10;99.90;;;;;;4938280;29;20190;-74
2023/03/31 06:33:48;;;;;;;14.60;4.90;;;11.10;99.90;;;;;;4938381;29;20192;-76
2023/03/31 06:36:16;;;;;;;15.23;5.03;;;11.10;99.90;;;;;;4938204;29;20282;-74
2023/03/31 06:38:42;;;;;;;17.52;5.45;;;11.10;99.90;;;;;;4953450;29;20238;-74
2023/03/31 06:41:11;;;;;;;15.43;5.35;;;11.10;99.90;;;;;;4937674;29;20231;-73
2023/03/31 06:43:37;;;;;;;16.77;5.20;;;11.00;99.90;;;;;;4938325;29;20186;-77
2023/03/31 06:46:04;;;;;;;14.95;5.60;;;11.00;99.90;;;;;;4938576;29;20272;-75
2023/03/31 06:48:30;;;;;;;14.38;4.97;;;11.00;99.90;;;;;;4953059;29;20663;-81
2023/03/31 06:50:59;;;;;;;18.55;5.50;;;11.00;99.90;;;;;;4938355;29;20184;-74
2023/03/31 06:53:25;;;;;;;12.98;5.13;;;11.00;99.90;;;;;;4952728;29;20210;-74
2023/03/31 06:55:51;;;;;;;12.77;5.10;;;11.00;99.90;;;;;;4938757;29;20624;-73
2023/03/31 06:58:16;;;;;;;10.73;4.88;;;11.00;99.90;;;;;;4937948;29;20187;-74
2023/03/31 07:00:44;;;;;;;9.68;4.60;;;11.00;99.90;;;;;;4920704;29;20191;-74
2023/03/31 07:03:11;;;;;;;10.55;4.38;;;11.00;99.90;;;;;;4937756;29;20175;-75
2023/03/31 07:05:37;;;;;;;13.80;4.65;;;11.00;99.90;;;;;;4921439;29;20585;-74
2023/03/31 07:08:03;;;;;;;13.55;4.63;;;11.00;99.90;;;;;;4938128;29;20247;-74
2023/03/31 07:10:30;;;;;;;11.00;4.68;;;11.00;99.90;;;;;;4937457;29;20664;-75
2023/03/31 07:12:57;;;;;;;11.25;4.68;;;11.00;99.90;;;;;;4937379;29;20187;-74
2023/03/31 07:15:24;;;;;;;10.55;4.60;;;11.00;99.90;;;;;;4937231;29;20210;-74
2023/03/31 07:17:52;;;;;;;9.75;4.90;;;11.00;99.90;;;;;;4937858;29;20190;-77
2023/03/31 07:20:19;;;;;;;14.77;5.45;;;11.00;99.90;;;;;;4937584;29;20231;-75
2023/03/31 07:22:47;;;;;;;12.95;6.82;;;11.00;99.90;;;;;;4952639;29;20667;-75
2023/03/31 07:25:15;;;;;;;12.65;6.10;;;10.90;99.90;;;;;;4937443;29;20226;-79
2023/03/31 07:27:42;;;;;;;15.90;7.57;;;10.90;99.90;;;;;;4937105;29;20210;-75
2023/03/31 07:30:16;;;;;;;17.30;8.10;;;10.90;99.90;;;;;;4937416;29;20180;-78
2023/03/31 07:32:45;;;;;;;14.95;8.13;;;10.90;99.90;;;;;;4952083;29;20187;-75
2023/03/31 07:35:11;;;;;;;14.82;7.18;;;10.90;99.90;;;;;;4936906;29;20184;-79
2023/03/31 07:37:42;;;;;;;13.98;7.07;;;10.90;99.90;;;;;;4937063;29;20187;-74
2023/03/31 07:40:11;;;;;;;18.17;7.82;;;10.90;99.90;;;;;;4936997;29;20255;-77
2023/03/31 07:42:37;;;;;;;16.40;8.65;;;10.90;99.90;;;;;;4935708;29;20640;-73
2023/03/31 07:45:05;;;;;;;18.92;8.27;;;11.00;99.90;;;;;;4954821;29;20184;-75
2023/03/31 07:47:31;;;;;;;17.90;7.97;;;11.00;99.90;;;;;;4938187;29;20571;-74
2023/03/31 07:49:57;;;;;;;17.13;6.47;;;11.00;99.90;;;;;;4952231;29;20613;-73
2023/03/31 07:52:23;;;;;;;13.55;6.07;;;11.00;99.90;;;;;;4935898;29;20180;-75
2023/03/31 07:54:49;;;;;;;12.68;6.55;;;11.10;99.90;;;;;;4935169;29;20189;-75
2023/03/31 07:57:16;;;;;;;11.15;5.38;;;11.00;99.90;;;;;;4937179;29;20278;-74
2023/03/31 07:59:42;;;;;;;12.90;5.38;;;11.00;99.90;;;;;;4936485;29;20211;-75
2023/03/31 08:02:11;;;;;;;14.40;5.72;;;11.00;99.90;;;;;;4951955;29;20596;-75
2023/03/31 08:04:37;;;;;;;13.77;5.43;;;11.00;99.90;;;;;;4936746;29;20183;-75
2023/03/31 08:07:03;;;;;;;8.85;5.32;;;11.10;99.90;;;;;;4936763;29;20724;-75
2023/03/31 08:09:29;;;;;;;12.40;6.30;;;11.00;99.90;;;;;;4936510;29;20636;-77
2023/03/31 08:11:55;;;;;;;13.43;6.00;;;11.00;99.90;;;;;;4935261;29;20194;-75
2023/03/31 08:14:21;;;;;;;14.90;6.50;;;11.00;99.90;;;;;;4936425;29;20188;-74
2023/03/31 08:16:46;;;;;;;14.80;6.82;;;11.10;99.90;;;;;;4936140;29;20202;-77
2023/03/31 08:19:12;;;;;;;13.32;5.95;;;11.00;99.90;;;;;;4936307;29;20175;-74
2023/03/31 08:21:38;;;;;;;12.02;6.18;;;11.00;99.90;;;;;;4936423;29;20179;-74
2023/03/31 08:24:05;;;;;;;14.32;7.57;;;11.00;99.90;;;;;;4934939;29;20647;-74
2023/03/31 08:26:31;;;;;;;14.30;7.07;;;11.00;99.90;;;;;;4936143;29;20198;-75
2023/03/31 08:28:57;;;;;;;13.18;6.22;;;11.00;99.90;;;;;;4936766;29;20226;-74
2023/03/31 08:31:24;;;;;;;16.33;7.53;;;11.00;99.90;;;;;;4951306;29;20350;-74
2023/03/31 08:33:50;;;;;;;10.68;5.53;;;11.00;99.90;;;;;;4936947;29;20532;-77
2023/03/31 08:36:16;;;;;;;10.23;5.60;;;11.00;99.90;;;;;;4936532;29;20183;-74
2023/03/31 08:38:46;;;;;;;13.25;6.40;;;11.00;99.90;;;;;;4936565;29;20647;-75
2023/03/31 08:41:40;;;;;;;13.77;6.72;;;11.00;99.90;;;;;;4936612;29;20175;-75
2023/03/31 08:44:26;;;;;;;11.32;6.13;;;11.00;99.90;;;;;;4935910;29;20175;-74
2023/03/31 08:46:55;;;;;;;15.07;5.85;;;11.10;99.90;;;;;;4931840;29;20191;-74
2023/03/31 08:49:22;;;;;;;11.98;5.65;;;11.10;99.90;;;;;;4950504;29;20254;-75
2023/03/31 08:52:17;;;;;;;12.43;4.80;;;11.10;99.90;;;;;;4935766;29;20193;-74
2023/03/31 08:54:48;;;;;;;11.40;4.10;;;11.10;99.90;;;;;;4935312;29;20187;-74
2023/03/31 08:57:42;;;;;;;9.30;3.97;;;11.10;99.90;;;;;;4936246;29;20175;-74
2023/03/31 09:00:16;;;;;;;8.52;3.80;;;11.10;99.90;;;;;;4935779;29;20183;-73
2023/03/31 09:02:42;;;;;;;9.07;3.70;;;11.20;99.90;;;;;;4935092;29;20561;-75
2023/03/31 09:05:53;;;;;;;11.43;4.47;;;11.20;99.90;;;;;;4938471;29;20640;-74
2023/03/31 09:08:40;;;;;;;8.60;4.00;;;11.20;99.90;;;;;;4934492;29;20326;-75
2023/03/31 09:11:13;;;;;;;12.43;4.55;;;11.20;99.90;;;;;;4939338;29;20506;-74
2023/03/31 09:14:00;;;;;;;10.35;4.43;;;11.20;99.90;;;;;;4939448;29;20600;-75
2023/03/31 09:16:52;;;;;;;10.90;4.20;;;11.20;99.90;;;;;;4939885;29;20179;-74
2023/03/31 09:19:35;;;;;;;9.07;4.22;;;11.20;99.90;;;;;;4938433;29;20222;-74
2023/03/31 09:22:05;;;;;;;10.38;4.60;;;11.30;99.90;;;;;;4939460;29;20164;-74
2023/03/31 09:24:35;;;;;;;10.60;4.82;;;11.30;99.90;;;;;;4940089;29;20175;-74
2023/03/31 09:27:05;;;;;;;13.02;4.70;;;11.30;99.90;;;;;;4939144;29;20218;-74
2023/03/31 09:29:55;;;;;;;11.88;4.65;;;11.30;99.90;;;;;;4939610;29;20172;-74
2023/03/31 09:32:28;;;;;;;9.27;4.05;;;11.40;99.90;;;;;;4938464;29;20238;-75
2023/03/31 09:35:11;;;;;;;9.98;4.30;;;11.40;99.90;;;;;;4939069;29;20242;-74
2023/03/31 09:37:36;;;;;;;11.57;4.55;;;11.40;99.90;;;;;;4954278;28;20628;-76
2023/03/31 09:40:09;;;;;;;12.60;5.15;;;11.40;99.90;;;;;;4937851;29;20275;-74
2023/03/31 09:42:36;;;;;;;14.30;5.28;;;11.40;99.90;;;;;;4939558;29;20226;-79
2023/03/31 09:45:03;;;;;;;13.65;4.97;;;11.40;99.90;;;;;;4953695;29;20188;-74
2023/03/31 09:47:38;;;;;;;12.93;5.68;;;11.50;99.90;;;;;;4939150;29;20648;-73
2023/03/31 09:50:06;;;;;;;14.65;5.05;;;11.50;99.90;;;;;;4938927;29;20219;-74
2023/03/31 09:52:36;;;;;;;12.15;4.70;;;11.50;99.90;;;;;;4953497;29;20194;-74
2023/03/31 09:55:09;;;;;;;8.15;4.68;;;11.50;99.90;;;;;;4939100;29;20226;-74
2023/03/31 09:57:38;;;;;;;12.50;4.78;;;11.60;99.90;;;;;;4939250;29;20203;-74
2023/03/31 10:00:13;;;;;;;10.77;4.20;;;11.60;99.90;;;;;;4921616;29;20191;-74
2023/03/31 10:03:06;;;;;;;12.48;5.28;;;11.60;99.90;;;;;;4938917;29;20179;-78
2023/03/31 10:05:51;;;;;;;11.32;4.88;;;11.70;99.90;;;;;;4939014;29;20199;-73
2023/03/31 10:08:22;;;;;;;13.88;5.22;;;11.70;99.90;;;;;;4939036;29;20581;-81
2023/03/31 10:10:54;;;;;;;11.27;4.60;;;11.80;99.90;;;;;;4939087;29;20576;-75
2023/03/31 10:13:24;;;;;;;11.88;4.25;;;11.80;99.90;;;;;;4938791;29;20633;-74
2023/03/31 10:16:00;;;;;;;12.30;4.30;;;11.80;99.90;;;;;;4937255;29;20218;-74
2023/03/31 10:18:34;;;;;;;12.68;4.88;;;11.90;99.90;;;;;;4938209;29;20263;-74
2023/03/31 10:21:02;;;;;;;11.85;4.90;;;11.90;99.90;;;;;;4938820;29;20651;-75
2023/03/31 10:23:31;;;;;;;12.93;4.75;;;12.00;99.90;;;;;;4938200;29;20588;-76
2023/03/31 10:25:58;;;;;;;11.57;4.60;;;12.00;99.90;;;;;;4938373;29;20199;-75
2023/03/31 10:28:24;;;;;;;9.73;3.85;;;12.00;99.90;;;;;;4938004;29;20253;-75
2023/03/31 10:30:55;;;;;;;11.55;4.10;;;12.10;99.90;;;;;;4938037;29;20183;-75
2023/03/31 10:33:26;;;;;;;12.95;4.53;;;12.10;99.90;;;;;;4938678;29;20176;-75
2023/03/31 10:36:07;;;;;;;12.57;4.30;;;12.10;99.90;;;;;;4938755;29;20175;-75
2023/03/31 10:38:39;;;;;;;7.75;3.30;;;12.10;99.90;;;;;;4938516;29;20223;-75
2023/03/31 10:41:05;;;;;;;6.82;3.17;;;12.10;99.90;;;;;;4937221;29;20207;-75
2023/03/31 10:43:46;;;;;;;9.00;3.50;;;12.10;99.90;;;;;;4937856;29;20171;-74
2023/03/31 10:46:12;;;;;;;8.07;3.40;;;12.10;99.90;;;;;;4938174;29;20171;-78
2023/03/31 10:48:41;;;;;;;8.60;3.28;;;12.10;99.90;;;;;;4952588;29;20575;-74
2023/03/31 10:51:20;;;;;;;8.20;3.30;;;12.10;99.90;;;;;;4937908;29;20179;-74
2023/03/31 10:53:51;;;;;;;7.28;3.50;;;12.10;99.90;;;;;;4937633;29;20210;-76
2023/03/31 10:56:34;;;;;;;10.02;3.80;;;12.10;99.90;;;;;;4952822;29;20172;-74
2023/03/31 10:59:28;;;;;;;9.48;3.85;;;12.20;99.90;;;;;;4937937;29;20186;-74
2023/03/31 11:02:23;;;;;;;7.45;3.28;;;12.20;99.90;;;;;;4937565;29;20600;-74
2023/03/31 11:05:00;;;;;;;12.23;3.72;;;12.20;99.90;;;;;;4937454;29;20179;-74
2023/03/31 11:07:57;;;;;;;6.65;3.72;;;12.20;99.90;;;;;;4937271;29;20627;-74
2023/03/31 11:10:41;;;;;;;9.57;3.80;;;12.30;99.90;;;;;;4938001;29;20175;-75
2023/03/31 11:13:32;;;;;;;9.40;3.78;;;12.30;99.90;;;;;;4938115;29;20289;-76
2023/03/31 11:16:07;;;;;;;7.85;3.55;;;12.40;99.90;;;;;;4937444;29;20190;-75
2023/03/31 11:18:38;;;;;;;7.15;3.72;;;12.40;99.90;;;;;;4938170;29;20616;-75
2023/03/31 11:21:26;;;;;;;6.82;3.55;;;12.40;99.90;;;;;;4952261;29;20248;-74
2023/03/31 11:24:05;;;;;;;12.32;4.25;;;12.50;99.90;;;;;;4937613;29;20170;-76
2023/03/31 11:27:02;;;;;;;12.90;5.30;;;12.60;99.90;;;;;;4937492;29;20180;-75
2023/03/31 11:29:42;;;;;;;10.07;3.80;;;12.60;99.90;;;;;;4936053;29;20191;-75
2023/03/31 11:32:30;;;;;;;12.65;4.00;;;12.60;99.90;;;;;;4937922;29;20263;-75
2023/03/31 11:35:17;;;;;;;9.30;4.20;;;12.70;99.90;;;;;;4936994;29;20186;-74
2023/03/31 11:37:49;;;;;;;12.65;5.22;;;12.80;99.90;;;;;;4936784;29;20273;-76
2023/03/31 11:40:36;;;;;;;10.63;3.60;;;12.90;99.90;;;;;;4937403;29;20175;-76
2023/03/31 11:43:08;;;;;;;11.07;3.92;;;13.00;99.90;;;;;;4936757;29;20182;-75
2023/03/31 11:45:40;;;;;;;13.48;6.63;;;13.20;99.90;;;;;;4936950;29;20166;-76
2023/03/31 11:48:17;;;;;;;12.40;4.10;;;13.30;99.90;;;;;;4937065;29;20675;-75
2023/03/31 11:50:45;;;;;;;8.43;3.47;;;13.40;99.90;;;;;;4951908;29;20181;-75
2023/03/31 11:53:16;;;;;;;6.82;2.92;;;13.50;99.90;;;;;;4937245;29;20182;-75
2023/03/31 11:55:44;;;;;;;12.27;2.72;;;13.60;99.90;;;;;;4935826;29;20616;-74
2023/03/31 11:58:21;;;;;;;11.18;3.53;;;13.60;99.90;;;;;;4936775;29;20187;-75
2023/03/31 12:00:52;;;;;;;8.82;2.70;;;13.70;99.90;;;;;;4937115;29;20163;-75
2023/03/31 12:03:43;;;;;;;8.23;3.05;;;13.70;99.90;;;;;;4936406;29;20191;-78
2023/03/31 12:06:18;;;;;;;6.68;2.83;;;13.70;99.90;;;;;;4936762;29;20262;-74
2023/03/31 12:08:56;;;;;;;8.38;2.88;;;13.70;99.90;;;;;;4936507;29;20210;-73
2023/03/31 12:11:41;;;;;;;11.05;3.05;;;13.60;99.90;;;;;;4938497;29;20172;-73
2023/03/31 12:14:32;;;;;;;16.23;3.92;;;13.60;99.90;;;;;;4939797;29;20187;-73
2023/03/31 12:17:13;;;;;;;9.57;2.97;;;13.50;99.90;;;;;;4952534;29;20171;-74
2023/03/31 12:19:55;;;;;;;10.95;2.95;;;13.40;99.90;;;;;;4951673;29;20359;-74
2023/03/31 12:22:38;;;;;;;9.90;3.13;;;13.30;99.90;;;;;;4935684;29;20187;-74
2023/03/31 12:25:04;;;;;;;9.68;2.83;;;13.30;99.90;;;;;;4936752;29;20610;-77
2023/03/31 12:27:38;;;;;;;15.23;3.47;;;13.30;99.90;;;;;;4950767;28;20688;-74
2023/03/31 12:30:05;;;;;;;12.85;2.85;;;13.20;99.90;;;;;;4950730;28;20186;-74
2023/03/31 12:32:35;;;;;;;7.78;2.88;;;13.20;99.90;;;;;;4936457;29;20175;-77
2023/03/31 12:35:05;;;;;;;7.68;3.15;;;13.20;99.90;;;;;;4951209;29;20197;-74
2023/03/31 12:38:32;;;;;;;11.15;3.40;;;13.20;99.90;;;;;;4936679;29;20225;-75
2023/03/31 12:41:23;;;;;;;9.18;3.05;;;13.10;99.90;;;;;;4895958;29;20193;-73
2023/03/31 12:44:16;;;;;;;6.57;3.03;;;13.10;99.90;;;;;;4896112;29;20201;-73
2023/03/31 12:46:54;;;;;;;8.90;3.38;;;13.10;99.90;;;;;;4928427;29;20647;-73
2023/03/31 12:49:39;;;;;;;10.93;3.60;;;13.10;99.90;;;;;;4950265;29;20819;-73
2023/03/31 12:52:16;;;;;;;7.82;3.17;;;13.10;99.90;;;;;;4935771;29;20186;-73
2023/03/31 12:55:01;;;;;;;7.60;3.03;;;13.10;99.90;;;;;;4935740;29;20159;-74
2023/03/31 12:57:27;;;;;;;21.25;9.68;;;13.20;99.90;;;;;;4935706;29;20171;-73
2023/03/31 13:00:15;;;;;;;12.30;3.88;;;13.30;99.90;;;;;;4936070;29;20605;-74
2023/03/31 13:02:41;;;;;;;10.48;3.38;;;13.40;99.90;;;;;;4936327;29;20219;-73
2023/03/31 13:05:35;;;;;;;14.40;3.60;;;13.50;99.90;;;;;;4935505;29;20270;-73